Weather observations for the past three days for
Red Oak
Metric (Imperial)
Date Time (cdt) Wind (kph) Vis. (km) Weather Sky Cond. Temperature (ºC) Relative Humidity Wind Chill (°C) Heat Index (°C) Pressure Precipitation (cm)
Air Dwpt 6 hour altimeter (cm) sea level (mb) 1 hr 3 hr 6 hr
Max. Min.
31 05:55 Vrbl 2 16.09 Fair CLR 22 20 88% 75.82 0.0
31 05:35 S 7 16.09 Fair CLR 21 20 94% 75.79 0.0
31 05:15 SW 4 16.09 Fair CLR 21 20 94% 75.79 0.0
31 04:55 S 4 16.09 Fair CLR 21 20 94% 75.79 0.0
31 04:35 S 6 16.09 Fair CLR 22 20 88% 75.79 0.0
31 04:15 SW 4 16.09 Fair CLR 22 20 88% 75.79 0.0
31 03:55 W 9 16.09 Fair CLR 22 20 88% 75.79 0.0
31 03:35 Vrbl 4 16.09 Fair CLR 22 20 88% 75.77 0.0
31 03:15 S 7 16.09 Fair CLR 22 20 88% 75.77 0.0
31 02:55 S 9 16.09 Fair CLR 22 20 88% 75.77 0.0
31 02:35 S 7 16.09 Fair CLR 22 20 88% 75.77 0.0
31 02:15 S 6 16.09 Fair CLR 22 21 94% 75.77 0.0
31 01:55 SW 4 9.66 Fog/Mist CLR 22 22 100% 75.77 0.0
31 01:35 S 4 9.66 Fog/Mist CLR 22 22 100% 75.77 0.0
31 01:15 SW 2 11.27 Fog/Mist CLR 22 21 94% 75.77 0.0
31 00:55 Calm 16.09 Fair CLR 23 22 32.7 22.6 94% 75.77 0.0
31 00:35 NE 2 16.09 Fair CLR 23 23 100% 75.74 0.0
31 00:15 SW 2 16.09 Fair CLR 24 23 94% 23 75.74 0.0
30 23:55 S 2 14.48 Fair CLR 24 24 100% 23 75.74 0.0
30 23:35 SW 2 14.48 Fair CLR 24 23 94% 23 75.74 0.0
30 23:15 Calm 14.48 Fair CLR 24 24 100% 23 75.74 0.0
30 22:55 Calm 16.09 Fair CLR 24 23 94% 23 75.74 0.0
30 22:35 E 4 16.09 Fair CLR 25 24 94% 26 75.77 0.0
30 22:15 Calm 16.09 Fair CLR 25 24 94% 26 75.74 0.0
30 21:55 E 2 16.09 Fair CLR 25 24 94% 26 75.74 0.0
30 21:35 NE 4 16.09 Fair CLR 26 24 89% 28 75.74 0.0
30 21:15 N 4 16.09 Fair CLR 26 25 94% 28 75.72 0.0
30 20:35 NE 6 16.09 Fair CLR 28 25 84% 33 75.69 0.0
30 20:15 E 2 16.09 Fair CLR 29 25 79% 35 75.69 0.0
30 19:55 SE 4 16.09 Fair CLR 30 25 75% 36 75.67 0.0
30 19:35 S 4 16.09 Fair CLR 31 26 75% 39 75.67 0.0
30 19:15 SE 2 16.09 Fair CLR 32 26 71% 41 75.67 0.0
30 18:55 S 4 16.09 Fair CLR 32 26 33.6 30.7 71% 41 75.67 0.0
30 18:35 S 2 16.09 Fair CLR 33 25 63% 41 75.67 0.0
30 18:15 S 9 16.09 Fair CLR 33 25 63% 41 75.67 0.0
30 17:55 S 7 16.09 Fair CLR 33 25 63% 41 75.67 0.0
30 17:35 SW 7 16.09 Fair CLR 32 24 63% 38 75.64 0.0
30 17:15 S 13 16.09 Fair CLR 33 24 59% 39 75.64 0.0
30 16:55 S 17 16.09 Fair CLR 33 24 59% 39 75.67 0.0
30 16:35 S 20 G 30 16.09 Fair CLR 32 23 59% 37 75.67 0.0
30 16:16 S 19 16.09 Fair CLR 33 24 59% 39 75.67 0.0
30 15:55 S 11 16.09 Fair CLR 33 24 59% 39 75.69 0.0
30 15:35 SW 11 16.09 Fair CLR 32 24 63% 38 75.72 0.0
30 15:15 S 15 16.09 Fair CLR 32 23 59% 37 75.72 0.0
30 14:55 SW 19 16.09 Fair CLR 32 23 59% 37 75.72 0.0
30 14:35 S 24 16.09 Fair CLR 33 22 52% 37 75.69 0.0
30 14:15 SW 26 G 33 16.09 Fair CLR 32 21 52% 35 75.72 0.0
30 13:55 SW 26 G 35 16.09 Fair CLR 32 21 52% 35 75.74 0.0
30 13:36 SW 20 G 33 16.09 Fair CLR 32 21 52% 35 75.77 0.0
30 13:15 S 28 G 35 16.09 Fair CLR 31 21 55% 34 75.77 0.0
30 12:55 S 19 16.09 Fair CLR 31 21 31.2 21.3 55% 34 75.77 0.0
30 12:35 S 22 16.09 Fair CLR 31 21 55% 34 75.79 0.0
30 12:15 S 17 16.09 Fair CLR 30 22 62% 33 75.82 0.0
30 11:55 S 17 16.09 Fair CLR 29 21 62% 31 75.84 0.0
30 11:35 SE 11 16.09 Fair CLR 28 21 66% 30 75.82 0.0
30 11:15 Vrbl 9 16.09 Fair CLR 28 21 66% 30 75.84 0.0
30 10:56 Vrbl 4 16.09 Fair CLR 27 21 70% 29 75.84 0.0
30 10:35 SE 15 16.09 Fair CLR 26 20 70% 27 75.79 0.0
30 10:15 S 17 16.09 Fair CLR 26 20 70% 27 75.79 0.0
30 09:55 S 11 16.09 Fair CLR 25 20 74% 26 75.82 0.0
30 09:35 S 13 16.09 Fair CLR 25 20 74% 26 75.82 0.0
30 09:15 S 13 16.09 Fair CLR 24 20 78% 24 75.77 0.0
30 08:55 S 9 16.09 Fair CLR 24 20 78% 24 75.79 0.0
30 08:35 S 6 16.09 Fair CLR 23 20 83% 75.79 0.0
30 08:16 S 9 16.09 Fair CLR 22 21 94% 75.82 0.0
30 07:55 S 6 16.09 Fair CLR 22 21 94% 75.84 0.0
30 07:35 SE 6 11.27 A Few Clouds FEW120 22 21 94% 75.84 0.0
30 07:15 S 6 12.87 Partly Cloudy SCT120 22 21 94% 75.84 0.0
30 06:55 S 7 16.09 A Few Clouds FEW110 23 20 25.6 22.3 83% 75.87 0.0 0.13
30 06:35 Vrbl 6 16.09 Partly Cloudy FEW048 SCT070 SCT110 23 20 83% 75.87 0.0
30 06:15 SW 20 G 39 2.01 Heavy Rain Haze SCT010 BKN047 OVC110 23 20 83% 75.82 0.0
30 05:55 NW 7 16.09 Overcast FEW065 SCT075 OVC110 24 20 78% 24 75.84 0.0
30 05:35 SW 6 16.09 Mostly Cloudy FEW040 SCT090 BKN120 24 19 74% 25 75.79 0.0
30 05:15 S 9 16.09 Partly Cloudy FEW050 SCT100 SCT120 24 19 74% 25 75.77 0.0
30 04:55 Vrbl 4 16.09 A Few Clouds FEW110 24 19 74% 25 75.79 0.0
30 04:35 SW 4 16.09 Fair CLR 24 20 78% 24 75.79 0.0
30 04:15 SW 6 16.09 Fair CLR 24 20 78% 24 75.77 0.0
30 03:55 S 9 16.09 Fair CLR 24 19 74% 25 75.77 0.0
30 03:35 S 9 16.09 Fair CLR 25 19 69% 26 75.77 0.0
30 03:15 S 11 16.09 Fair CLR 25 19 69% 26 75.77 0.0
30 02:55 S 15 16.09 Fair CLR 25 19 69% 26 75.77 0.0
30 02:35 S 17 16.09 Fair CLR 25 19 69% 26 75.77 0.0
30 02:15 S 15 16.09 Fair CLR 25 19 69% 26 75.77 0.0
30 01:55 S 17 16.09 Fair CLR 25 19 69% 26 75.79 0.0
30 01:35 S 19 16.09 Fair CLR 25 19 69% 26 75.79 0.0
30 01:15 S 17 16.09 Fair CLR 25 19 69% 26 75.79 0.0
30 00:55 S 15 16.09 Fair CLR 25 19 30.2 25.2 69% 26 75.79 0.0
30 00:35 S 15 16.09 Fair CLR 25 19 69% 26 75.79 0.0
30 00:15 S 15 16.09 Fair CLR 26 19 65% 27 75.79 0.0
29 23:55 S 13 16.09 Fair CLR 26 20 70% 27 75.79 0.0
29 23:35 S 13 16.09 Fair CLR 26 20 70% 27 75.79 0.0
29 23:15 S 11 16.09 Fair CLR 26 20 70% 27 75.79 0.0
29 22:55 S 15 16.09 Fair CLR 26 20 70% 27 75.77 0.0
29 22:35 S 15 16.09 Fair CLR 26 20 70% 27 75.77 0.0
29 22:15 S 17 16.09 Fair CLR 27 21 70% 29 75.77 0.0
29 21:55 S 19 16.09 Fair CLR 27 21 70% 29 75.77 0.0
29 21:35 S 15 16.09 Fair CLR 27 21 70% 29 75.77 0.0
29 21:15 S 13 16.09 Fair CLR 27 22 74% 29 75.74 0.0
29 20:55 S 11 16.09 Fair CLR 27 22 74% 29 75.72 0.0
29 20:35 S 13 16.09 Fair CLR 27 22 74% 29 75.69 0.0
29 20:15 S 13 16.09 Fair CLR 27 22 74% 29 75.69 0.0
29 19:55 S 13 16.09 Fair CLR 28 22 70% 31 75.69 0.0
29 19:35 S 11 12.87 Fair CLR 28 22 70% 31 75.69 0.0
29 19:15 S 13 11.27 Fair CLR 29 22 66% 32 75.69 0.0
29 18:55 S 19 G 30 16.09 Fair CLR 30 22 31.8 28.1 62% 33 75.72 0.0
29 18:35 S 17 G 30 16.09 Fair CLR 30 22 62% 33 75.72 0.0
29 18:15 S 19 16.09 Fair CLR 31 22 59% 35 75.72 0.0
29 17:57 S 19 16.09 Fair CLR 31 22 59% 35 75.74 0.0
29 17:35 S 22 G 33 16.09 Fair CLR 32 21 52% 35 75.74 0.0
29 17:15 S 22 G 33 16.09 Fair CLR 32 22 55% 36 75.74 0.0
29 16:55 S 22 G 30 16.09 Fair CLR 31 22 59% 35 75.74 0.0
29 16:36 S 19 16.09 Fair CLR 30 22 62% 33 75.77 0.0
29 16:15 S 15 16.09 Fair CLR 29 22 66% 32 75.79 0.0
29 15:55 S 15 16.09 Fair CLR 29 22 66% 32 75.79 0.0
29 15:35 S 17 16.09 Fair CLR 29 22 66% 32 75.82 0.0
29 15:15 S 19 G 30 16.09 Fair CLR 30 22 62% 33 75.82 0.0
29 14:55 S 22 G 37 16.09 Fair CLR 30 21 59% 33 75.82 0.0
29 14:35 S 28 G 43 16.09 Fair CLR 31 21 55% 34 75.84 0.0
29 14:15 S 28 G 41 16.09 Fair CLR 31 20 52% 33 75.84 0.0
29 13:55 S 24 16.09 Fair CLR 31 20 52% 33 75.9 0.0
29 13:35 S 20 G 35 16.09 Fair CLR 30 20 55% 32 75.92 0.0
29 13:15 S 22 16.09 Fair CLR 29 20 58% 31 75.95 0.0
29 12:56 S 20 G 28 16.09 Fair CLR 29 20 58% 31 75.97 0.0
29 12:35 S 17 16.09 Fair CLR 28 19 58% 29 76 0.0
29 12:15 SE 17 16.09 Fair CLR 28 19 58% 29 76.02 0.0
29 11:55 SE 17 16.09 Fair CLR 27 18 58% 28 76.05 0.0
29 11:35 SE 15 16.09 Fair CLR 26 18 61% 27 76.05 0.0
29 11:15 S 19 G 30 16.09 Fair CLR 26 17 58% 27 76.05 0.0
29 10:55 S 26 G 37 16.09 Fair CLR 27 18 58% 28 76.02 0.0
29 10:35 S 26 G 33 16.09 Fair CLR 27 18 58% 28 76.02 0.0
29 10:15 S 20 16.09 Fair CLR 25 18 65% 26 76.05 0.0
29 09:55 S 20 G 31 16.09 Fair CLR 24 18 69% 25 76.05 0.0
29 09:35 S 22 16.09 Fair CLR 23 17 69% 76.07 0.0
29 09:15 S 19 16.09 Fair CLR 22 17 73% 76.1 0.0
29 08:55 S 17 16.09 A Few Clouds FEW110 21 17 78% 76.1 0.0
29 08:35 S 17 16.09 A Few Clouds FEW110 20 16 78% 76.1 0.0
29 08:15 S 19 16.09 Fair CLR 20 16 78% 76.12 0.0
29 07:55 S 15 16.09 A Few Clouds FEW100 19 16 83% 76.1 0.0
29 07:35 S 13 16.09 A Few Clouds FEW100 19 16 83% 76.12 0.0
29 07:15 S 13 16.09 Fair CLR 19 16 83% 76.12 0.0
29 06:55 S 13 16.09 Fair CLR 19 16 20.3 18.8 83% 76.12 0.0
29 06:35 S 13 16.09 Fair CLR 19 16 83% 76.15 0.0
29 06:15 S 17 16.09 A Few Clouds FEW110 19 16 83% 76.17 0.0
29 05:55 S 11 16.09 Mostly Cloudy BKN110 19 16 83% 76.15 0.0
29 05:35 S 9 16.09 Overcast OVC095 20 16 78% 76.17 0.0
29 05:15 S 9 16.09 Overcast OVC095 20 16 78% 76.2 0.0
29 04:55 S 9 16.09 Mostly Cloudy BKN095 19 16 83% 76.17 0.0
29 04:35 S 13 16.09 Fair CLR 20 16 78% 76.17 0.0
29 04:15 S 11 16.09 Fair CLR 20 17 83% 76.17 0.0
29 03:55 S 15 16.09 Fair CLR 19 16 83% 76.2 0.0
29 03:35 S 11 16.09 Fair CLR 20 17 83% 76.23 0.0
29 03:15 S 13 16.09 Fair CLR 20 17 83% 76.23 0.0
29 02:55 S 13 16.09 Fair CLR 20 17 83% 76.23 0.0
29 02:35 S 11 16.09 Fair CLR 20 17 83% 76.23 0.0
29 02:15 S 7 16.09 Fair CLR 20 17 83% 76.25 0.0
29 01:55 S 9 16.09 Fair CLR 20 17 83% 76.25 0.0
29 01:35 S 13 16.09 Fair CLR 20 17 83% 76.23 0.0
29 01:15 S 11 16.09 Fair CLR 20 17 83% 76.25 0.0
29 00:55 S 9 16.09 Fair CLR 20 17 27.6 20.1 83% 76.28 0.0
29 00:35 S 9 16.09 Fair CLR 20 17 83% 76.28 0.0
29 00:15 S 7 16.09 Fair CLR 20 17 83% 76.28 0.0
28 23:55 S 7 16.09 Fair CLR 20 17 83% 76.28 0.0
28 23:36 S 9 16.09 Fair CLR 21 17 78% 76.25 0.0
28 23:15 S 7 16.09 Fair CLR 20 18 88% 76.28 0.0
28 22:55 S 7 16.09 Fair CLR 21 18 83% 76.28 0.0
28 22:35 S 7 16.09 Fair CLR 21 18 83% 76.3 0.0
28 22:15 Vrbl 7 16.09 Fair CLR 21 18 83% 76.3 0.0
28 21:55 S 9 16.09 Fair CLR 22 18 78% 76.3 0.0
28 21:35 Vrbl 6 16.09 Fair CLR 21 18 83% 76.3 0.0
28 21:15 SW 4 14.48 Fair CLR 21 18 83% 76.3 0.0
28 20:55 S 4 9.66 Fair with Haze CLR 22 18 78% 76.28 0.0
28 20:35 S 6 14.48 Fair CLR 23 18 74% 76.28 0.0
28 20:15 S 9 16.09 Fair CLR 23 18 74% 76.25 0.0
28 19:55 S 11 16.09 Fair CLR 24 18 69% 25 76.25 0.0
28 19:35 S 11 14.48 Fair CLR 26 18 61% 27 76.28 0.0
28 19:15 S 13 16.09 Fair CLR 27 19 62% 28 76.28 0.0
28 18:55 S 13 16.09 Fair CLR 27 19 29.3 27.3 62% 28 76.3 0.0
28 18:35 S 13 16.09 Fair CLR 28 19 58% 29 76.3 0.0
28 18:15 S 13 16.09 Fair CLR 28 19 58% 29 76.33 0.0
28 17:55 S 13 16.09 Fair CLR 28 18 55% 29 76.33 0.0
28 17:35 S 20 G 28 16.09 Fair CLR 29 18 51% 30 76.33 0.0
28 17:15 S 20 16.09 Fair CLR 29 18 51% 30 76.33 0.0
28 16:55 S 13 16.09 Fair CLR 29 18 51% 30 76.35 0.0
28 16:15 S 17 16.09 Fair CLR 29 18 51% 30 76.35 0.0
28 15:55 S 17 16.09 Fair CLR 29 18 51% 30 76.35 0.0
28 15:35 S 19 16.09 Fair CLR 29 18 51% 30 76.4 0.0
28 15:15 S 19 16.09 Fair CLR 29 18 51% 30 76.4 0.0
28 14:55 S 19 16.09 Fair CLR 29 18 51% 30 76.45 0.0
28 14:35 S 22 16.09 Fair CLR 29 18 51% 30 76.45 0.0
28 14:15 S 17 16.09 Fair CLR 28 18 55% 29 76.48 0.0
28 13:55 S 19 G 28 16.09 Fair CLR 28 18 55% 29 76.5 0.0
28 13:35 S 19 16.09 Fair CLR 28 17 51% 29 76.5 0.0
28 13:15 S 20 G 26 16.09 Fair CLR 28 17 51% 29 76.53 0.0
28 12:55 SW 19 16.09 Fair CLR 28 18 27.8 14.4 55% 29 76.56 0.0
28 12:35 S 20 G 31 16.09 Fair CLR 27 18 58% 28 76.58 0.0
28 12:15 S 15 16.09 Fair CLR 27 18 58% 28 76.58 0.0
28 11:56 S 22 16.09 Fair CLR 27 18 58% 28 76.58 0.0
28 11:35 S 20 16.09 Fair CLR 27 18 58% 28 76.58 0.0
28 11:15 S 19 16.09 Fair CLR 26 18 61% 27 76.58 0.0
28 10:55 S 13 16.09 Fair CLR 26 18 61% 27 76.61 0.0
28 10:35 S 13 16.09 Fair CLR 25 18 65% 26 76.61 0.0
28 10:15 S 13 16.09 Fair CLR 24 19 74% 25 76.61 0.0
28 09:55 S 7 16.09 Fair CLR 23 18 74% 76.61 0.0
28 09:35 S 7 16.09 Fair CLR 22 18 78% 76.61 0.0
28 09:15 Vrbl 7 16.09 Fair CLR 21 18 83% 76.61 0.0
28 08:55 W 11 16.09 Fair CLR 21 18 83% 76.63 0.0
28 08:35 Calm 16.09 Fair CLR 20 17 83% 76.61 0.0
28 08:15 Calm 16.09 Fair CLR 19 17 88% 76.61 0.0
28 07:55 Calm 12.87 A Few Clouds FEW085 FEW110 18 18 100% 76.61 0.0
28 07:35 W 2 11.27 Fog/Mist SCT085 BKN110 17 17 100% 76.58 0.0
28 07:15 E 2 11.27 Mostly Cloudy BKN085 BKN120 16 16 100% 76.58 0.0
28 06:55 Calm 4.83 Fog/Mist FEW085 15 15 17.3 14.3 100% 76.58 0.0
28 06:35 Calm 4.83 Fog/Mist CLR 15 15 100% 76.56 0.0
Date Time (cdt) Wind (kph) Vis. (km) Weather Sky Cond. Air Dwpt Max. Min. Relative Humidity Wind Chill (°C) Heat Index (°C) altimeter (cm) sea level (mb) 1 hr 3 hr 6 hr
6 hour
Temperature (ºC) Pressure Precipitation (cm)